createdAt,value
2022-11-20T00:01:49.998Z,4.10
2022-11-20T00:04:35.133Z,4.30
2022-11-20T00:07:20.556Z,3.80
2022-11-20T00:10:06.357Z,4.00
2022-11-20T00:12:51.710Z,4.23
2022-11-20T00:15:37.052Z,4.10
2022-11-20T00:18:22.299Z,4.10
2022-11-20T00:21:13.006Z,3.97
2022-11-20T00:23:58.932Z,4.17
2022-11-20T00:26:44.358Z,4.13
2022-11-20T00:29:30.097Z,4.23
2022-11-20T00:32:15.809Z,4.30
2022-11-20T00:35:01.108Z,3.87
2022-11-20T00:37:46.471Z,3.70
2022-11-20T00:40:31.664Z,4.30
2022-11-20T00:43:16.884Z,3.90
2022-11-20T00:46:05.132Z,4.10
2022-11-20T00:48:50.500Z,4.10
2022-11-20T00:51:35.835Z,3.80
2022-11-20T00:54:21.021Z,4.20
2022-11-20T00:57:06.376Z,3.63
2022-11-20T00:59:51.670Z,3.80
2022-11-20T01:02:37.034Z,3.70
2022-11-20T01:05:22.377Z,3.67
2022-11-20T01:08:07.816Z,4.03
2022-11-20T01:10:53.276Z,3.63
2022-11-20T01:13:39.290Z,3.37
2022-11-20T01:16:27.033Z,3.90
2022-11-20T01:19:17.984Z,3.60
2022-11-20T01:22:03.918Z,3.97
2022-11-20T01:24:49.380Z,3.53
2022-11-20T01:27:34.523Z,3.70
2022-11-20T01:30:19.934Z,3.93
2022-11-20T01:33:05.163Z,4.03
2022-11-20T01:35:50.660Z,3.50
2022-11-20T01:38:36.448Z,3.60
2022-11-20T01:41:42.157Z,3.50
2022-11-20T01:44:52.491Z,3.70
2022-11-20T01:47:43.531Z,3.53
2022-11-20T01:50:34.730Z,3.50
2022-11-20T01:53:25.315Z,3.40
2022-11-20T01:56:14.017Z,3.50
2022-11-20T01:59:03.140Z,3.53
2022-11-20T02:01:48.620Z,4.03
2022-11-20T02:04:33.953Z,3.40
2022-11-20T02:07:21.031Z,3.60
2022-11-20T02:10:06.984Z,3.23
2022-11-20T02:13:15.279Z,3.40
2022-11-20T02:16:01.370Z,3.60
2022-11-20T02:18:47.702Z,3.27
2022-11-20T02:22:30.954Z,3.37
2022-11-20T02:25:17.106Z,3.47
2022-11-20T02:28:04.054Z,3.50
2022-11-20T02:30:49.571Z,3.37
2022-11-20T02:33:35.141Z,3.33
2022-11-20T02:36:20.561Z,3.33
2022-11-20T02:39:06.653Z,3.40
2022-11-20T02:41:57.097Z,3.00
2022-11-20T02:44:42.401Z,3.50
2022-11-20T02:47:27.768Z,3.20
2022-11-20T02:50:13.665Z,3.13
2022-11-20T02:52:59.005Z,3.33
2022-11-20T02:55:44.542Z,3.37
2022-11-20T02:58:29.797Z,3.10
2022-11-20T03:01:15.471Z,3.30
2022-11-20T03:04:00.834Z,3.00
2022-11-20T03:06:46.082Z,3.50
2022-11-20T03:09:31.757Z,3.23
2022-11-20T03:12:17.094Z,3.20
2022-11-20T03:15:02.570Z,3.33
2022-11-20T03:17:47.774Z,3.20
2022-11-20T03:20:34.906Z,2.90
2022-11-20T03:23:20.662Z,3.40
2022-11-20T03:26:13.772Z,3.00
2022-11-20T03:29:01.986Z,3.15
2022-11-20T03:31:47.873Z,2.90
2022-11-20T03:34:33.346Z,3.17
2022-11-20T03:37:18.485Z,3.00
2022-11-20T03:40:05.057Z,2.67
2022-11-20T03:42:50.611Z,3.00
2022-11-20T03:45:35.864Z,2.90
2022-11-20T03:48:21.335Z,3.10
2022-11-20T03:51:18.116Z,3.33
2022-11-20T03:54:08.925Z,3.10
2022-11-20T03:56:54.211Z,3.13
2022-11-20T03:59:39.442Z,3.27
2022-11-20T04:02:24.830Z,3.40
2022-11-20T04:05:10.120Z,2.93
2022-11-20T04:07:55.398Z,3.03
2022-11-20T04:10:40.668Z,2.67
2022-11-20T04:13:25.950Z,2.93
2022-11-20T04:16:11.375Z,3.23
2022-11-20T04:18:59.185Z,2.77
2022-11-20T04:21:45.629Z,2.87
2022-11-20T04:24:30.847Z,3.00
2022-11-20T04:27:16.083Z,3.03
2022-11-20T04:30:01.517Z,2.97
2022-11-20T04:32:46.786Z,2.60
2022-11-20T04:35:35.462Z,3.03
2022-11-20T04:38:21.296Z,2.73
2022-11-20T04:41:08.723Z,2.43
2022-11-20T04:44:06.031Z,2.60
2022-11-20T04:46:51.626Z,3.03
2022-11-20T04:49:37.077Z,2.70
2022-11-20T04:52:22.537Z,3.10
2022-11-20T04:55:08.643Z,2.90
2022-11-20T04:57:54.031Z,3.10
2022-11-20T05:00:39.934Z,2.80
2022-11-20T05:03:25.256Z,2.90
2022-11-20T05:06:13.338Z,2.40
2022-11-20T05:08:59.621Z,2.53
2022-11-20T05:11:48.068Z,2.30
2022-11-20T05:14:36.531Z,2.73
2022-11-20T05:17:21.967Z,2.93
2022-11-20T05:20:08.046Z,2.60
2022-11-20T05:22:53.643Z,3.00
2022-11-20T05:25:39.043Z,2.90
2022-11-20T05:28:25.083Z,2.53
2022-11-20T05:31:13.059Z,2.47
2022-11-20T05:33:58.558Z,3.20
2022-11-20T05:36:44.139Z,2.70
2022-11-20T05:39:29.735Z,2.70
2022-11-20T05:42:33.866Z,2.47
2022-11-20T05:45:19.236Z,3.00
2022-11-20T05:48:04.480Z,2.63
2022-11-20T05:50:49.871Z,2.90
2022-11-20T05:53:36.050Z,2.50
2022-11-20T05:56:23.353Z,2.80
2022-11-20T05:59:08.905Z,2.80
2022-11-20T06:01:54.351Z,2.67
2022-11-20T06:04:39.729Z,2.50
2022-11-20T06:07:25.625Z,2.10
2022-11-20T06:10:11.474Z,2.40
2022-11-20T06:12:58.990Z,2.70
2022-11-20T06:15:50.852Z,2.27
2022-11-20T06:18:36.660Z,2.87
2022-11-20T06:21:23.549Z,2.93
2022-11-20T06:24:13.106Z,2.57
2022-11-20T06:26:59.923Z,2.60
2022-11-20T06:29:45.219Z,2.50
2022-11-20T06:32:30.515Z,2.43
2022-11-20T06:35:15.898Z,2.40
2022-11-20T06:38:01.499Z,2.50
2022-11-20T06:40:47.536Z,2.20
2022-11-20T06:43:33.330Z,2.37
2022-11-20T06:46:20.636Z,2.10
2022-11-20T06:49:06.282Z,2.60
2022-11-20T06:51:55.007Z,2.57
2022-11-20T06:54:40.345Z,2.43
2022-11-20T06:57:25.998Z,2.60
2022-11-20T07:00:12.584Z,2.67
2022-11-20T07:02:58.016Z,2.50
2022-11-20T07:05:43.570Z,2.40
2022-11-20T07:08:30.237Z,2.87
2022-11-20T07:11:15.756Z,2.63
2022-11-20T07:14:01.010Z,2.33
2022-11-20T07:16:46.426Z,3.10
2022-11-20T07:19:32.614Z,2.70
2022-11-20T07:22:18.261Z,3.10
2022-11-20T07:25:04.563Z,3.43
2022-11-20T07:27:50.645Z,3.53
2022-11-20T07:30:36.591Z,3.43
2022-11-20T07:33:22.841Z,3.40
2022-11-20T07:36:09.393Z,3.17
2022-11-20T07:38:56.587Z,3.13
2022-11-20T07:41:42.330Z,3.10
2022-11-20T07:44:28.051Z,3.00
2022-11-20T07:47:13.640Z,2.60
2022-11-20T07:49:59.049Z,3.40
2022-11-20T07:52:44.443Z,16.33
2022-11-20T07:55:29.876Z,18.73
2022-11-20T07:58:15.215Z,19.47
2022-11-20T08:01:05.897Z,14.73
2022-11-20T08:03:51.955Z,14.47
2022-11-20T08:06:38.470Z,14.07
2022-11-20T08:09:24.537Z,12.67
2022-11-20T08:12:39.986Z,12.00
2022-11-20T08:15:25.554Z,12.13
2022-11-20T08:21:18.091Z,10.57
2022-11-20T08:24:03.657Z,9.63
2022-11-20T08:26:49.366Z,9.33
2022-11-20T08:29:34.783Z,9.47
2022-11-20T08:32:20.006Z,9.33
2022-11-20T08:35:05.608Z,8.47
2022-11-20T08:37:51.197Z,8.50
2022-11-20T08:40:36.658Z,8.80
2022-11-20T08:43:22.089Z,8.20
2022-11-20T08:46:07.438Z,8.37
2022-11-20T08:48:53.382Z,8.53
2022-11-20T08:51:39.679Z,8.63
2022-11-20T08:54:26.850Z,7.90
2022-11-20T08:57:12.642Z,7.93
2022-11-20T09:00:06.378Z,7.67
2022-11-20T09:02:52.921Z,8.00
2022-11-20T09:05:40.436Z,7.37
2022-11-20T09:08:26.531Z,6.87
2022-11-20T09:11:12.423Z,7.70
2022-11-20T09:13:57.960Z,6.93
2022-11-20T09:16:43.435Z,7.63
2022-11-20T09:19:35.563Z,7.37
2022-11-20T09:22:21.986Z,7.30
2022-11-20T09:25:08.101Z,7.00
2022-11-20T09:27:57.938Z,7.70
2022-11-20T09:30:43.410Z,6.90
2022-11-20T09:33:28.785Z,6.50
2022-11-20T09:36:14.263Z,6.70
2022-11-20T09:38:59.487Z,6.67
2022-11-20T09:42:05.141Z,6.73
2022-11-20T09:45:20.045Z,7.03
2022-11-20T09:48:30.751Z,6.17
2022-11-20T09:51:44.298Z,6.60
2022-11-20T09:54:39.518Z,6.93
2022-11-20T09:57:36.000Z,6.07
2022-11-20T10:00:22.272Z,6.30
2022-11-20T10:03:17.938Z,6.17
2022-11-20T10:06:06.274Z,6.60
2022-11-20T10:09:13.670Z,6.30
2022-11-20T10:12:08.772Z,6.60
2022-11-20T10:15:07.091Z,5.93
2022-11-20T10:18:17.491Z,6.77
2022-11-20T10:21:14.189Z,6.40
2022-11-20T10:24:25.822Z,5.77
2022-11-20T10:27:45.260Z,5.97
2022-11-20T10:30:35.689Z,5.87
2022-11-20T10:33:24.833Z,5.83
2022-11-20T10:36:50.093Z,5.80
2022-11-20T10:40:06.047Z,5.50
2022-11-20T10:42:57.199Z,5.70
2022-11-20T10:45:52.548Z,6.33
2022-11-20T10:48:41.740Z,6.03
2022-11-20T10:51:47.144Z,5.97
2022-11-20T10:55:23.557Z,5.63
2022-11-20T10:58:12.380Z,5.80
2022-11-20T11:01:15.304Z,6.13
2022-11-20T11:04:00.719Z,5.45
2022-11-20T11:06:49.665Z,6.03
2022-11-20T11:09:42.679Z,5.40
2022-11-20T11:12:30.334Z,5.95
2022-11-20T11:15:42.020Z,5.57
2022-11-20T11:18:35.564Z,5.10
2022-11-20T11:24:40.939Z,5.10
2022-11-20T11:27:27.371Z,5.30
2022-11-20T11:30:18.627Z,5.30
2022-11-20T11:33:06.695Z,5.37
2022-11-20T11:35:58.342Z,5.70
2022-11-20T11:38:45.415Z,5.07
2022-11-20T11:41:38.940Z,5.37
2022-11-20T11:47:42.815Z,5.07
2022-11-20T11:50:30.050Z,5.37
2022-11-20T11:53:24.817Z,5.27
2022-11-20T11:56:12.319Z,4.63
2022-11-20T11:59:01.743Z,5.23
2022-11-20T12:02:01.239Z,5.00
2022-11-20T12:05:01.468Z,5.00
2022-11-20T12:08:02.241Z,5.47
2022-11-20T12:11:06.347Z,5.20
2022-11-20T12:13:59.297Z,5.27
2022-11-20T12:16:44.692Z,5.40
2022-11-20T12:19:35.712Z,5.30
2022-11-20T12:22:39.841Z,5.63
2022-11-20T12:25:27.892Z,5.73
2022-11-20T12:28:22.239Z,5.70
2022-11-20T12:31:20.052Z,5.30
2022-11-20T12:34:14.467Z,5.53
2022-11-20T12:37:31.865Z,5.47
2022-11-20T12:40:37.588Z,5.50
2022-11-20T12:43:43.789Z,5.20
2022-11-20T12:46:47.233Z,5.50
2022-11-20T12:49:51.042Z,5.20
2022-11-20T12:52:52.207Z,5.67
2022-11-20T12:56:20.767Z,5.20
2022-11-20T12:59:21.842Z,5.60
2022-11-20T13:02:23.035Z,6.27
2022-11-20T13:05:33.560Z,5.90
2022-11-20T13:08:25.998Z,6.27
2022-11-20T13:11:33.626Z,6.23
2022-11-20T13:14:31.481Z,5.70
2022-11-20T13:17:43.089Z,6.20
2022-11-20T13:20:30.474Z,6.30
2022-11-20T13:23:29.417Z,5.87
2022-11-20T13:26:18.733Z,5.80
2022-11-20T13:29:17.411Z,5.00
2022-11-20T13:32:16.382Z,5.00
2022-11-20T13:35:05.730Z,5.00
2022-11-20T13:38:05.290Z,5.83
2022-11-20T13:40:59.667Z,5.37
2022-11-20T13:43:45.984Z,5.77
2022-11-20T13:46:38.486Z,5.47
2022-11-20T13:49:32.653Z,4.80
2022-11-20T13:52:40.016Z,4.47
2022-11-20T13:55:42.137Z,5.10
2022-11-20T13:58:52.289Z,4.70
2022-11-20T14:01:39.073Z,4.57
2022-11-20T14:04:30.133Z,5.00
2022-11-20T14:07:17.807Z,4.40
2022-11-20T14:10:03.597Z,4.87
2022-11-20T14:12:49.078Z,4.83
2022-11-20T14:15:36.624Z,4.40
2022-11-20T14:18:27.289Z,4.23
2022-11-20T14:21:12.775Z,3.77
2022-11-20T14:24:11.617Z,4.93
2022-11-20T14:26:57.039Z,4.63
2022-11-20T14:29:43.784Z,4.33
2022-11-20T14:32:31.551Z,4.77
2022-11-20T14:35:26.507Z,4.57
2022-11-20T14:38:18.316Z,4.00
2022-11-20T14:41:19.926Z,4.00
2022-11-20T14:44:06.169Z,4.10
2022-11-20T14:46:54.185Z,4.13
2022-11-20T14:49:40.936Z,4.40
2022-11-20T14:52:28.822Z,4.13
2022-11-20T14:55:26.063Z,3.90
2022-11-20T14:58:27.326Z,3.40
2022-11-20T15:01:15.522Z,3.80
2022-11-20T15:04:11.421Z,3.43
2022-11-20T15:07:00.043Z,3.60
2022-11-20T15:09:46.093Z,3.20
2022-11-20T15:12:34.261Z,3.97
2022-11-20T15:15:36.354Z,3.97
2022-11-20T15:18:55.134Z,3.60
2022-11-20T15:21:40.922Z,3.47
2022-11-20T15:24:26.366Z,3.90
2022-11-20T15:27:12.241Z,3.80
2022-11-20T15:29:57.617Z,3.50
2022-11-20T15:32:43.863Z,3.43
2022-11-20T15:35:30.027Z,3.60
2022-11-20T15:38:16.511Z,3.73
2022-11-20T15:41:02.419Z,3.80
2022-11-20T15:43:48.176Z,3.50
2022-11-20T15:46:39.629Z,3.50
2022-11-20T15:49:26.836Z,3.07
2022-11-20T15:52:13.972Z,3.17
2022-11-20T15:55:05.385Z,3.30
2022-11-20T15:57:53.948Z,3.42
2022-11-20T16:00:41.109Z,3.17
2022-11-20T16:03:26.630Z,3.17
2022-11-20T16:06:12.051Z,3.47
2022-11-20T16:08:57.791Z,2.73
2022-11-20T16:11:44.385Z,3.27
2022-11-20T16:14:48.332Z,3.37
2022-11-20T16:20:30.617Z,3.30
2022-11-20T16:23:17.837Z,2.97
2022-11-20T16:26:14.429Z,3.10
2022-11-20T16:29:01.946Z,3.23
2022-11-20T16:31:47.537Z,3.30
2022-11-20T16:34:33.471Z,3.30
2022-11-20T16:37:19.194Z,3.43
2022-11-20T16:40:05.378Z,3.23
2022-11-20T16:42:50.960Z,3.27
2022-11-20T16:45:41.954Z,3.23
2022-11-20T16:48:27.143Z,3.70
2022-11-20T16:51:13.217Z,3.20
2022-11-20T16:54:02.214Z,3.37
2022-11-20T16:56:48.371Z,2.83
2022-11-20T16:59:33.737Z,3.60
2022-11-20T17:02:19.283Z,3.30
2022-11-20T17:05:05.104Z,3.80
2022-11-20T17:07:50.851Z,4.30
2022-11-20T17:10:36.224Z,4.23
2022-11-20T17:13:21.553Z,4.43
2022-11-20T17:16:13.105Z,4.93
2022-11-20T17:19:03.335Z,4.80
2022-11-20T17:21:49.735Z,4.53
2022-11-20T17:24:35.379Z,4.93
2022-11-20T17:27:21.090Z,4.80
2022-11-20T17:30:06.857Z,5.20
2022-11-20T17:32:52.078Z,5.27
2022-11-20T17:35:37.501Z,5.03
2022-11-20T17:38:23.133Z,4.80
2022-11-20T17:41:10.080Z,4.83
2022-11-20T17:43:57.457Z,5.00
2022-11-20T17:46:42.818Z,4.67
2022-11-20T17:49:28.121Z,4.60
2022-11-20T17:52:13.366Z,4.83
2022-11-20T17:54:58.624Z,4.67
2022-11-20T17:57:52.818Z,4.50
2022-11-20T18:00:38.550Z,4.87
2022-11-20T18:03:25.232Z,4.47
2022-11-20T18:06:15.474Z,5.00
2022-11-20T18:09:02.877Z,4.60
2022-11-20T18:11:48.256Z,4.90
2022-11-20T18:14:34.558Z,4.93
2022-11-20T18:17:19.875Z,4.67
2022-11-20T18:20:38.221Z,4.60
2022-11-20T18:23:11.790Z,4.40
2022-11-20T18:26:00.767Z,4.50
2022-11-20T18:28:46.809Z,4.70
2022-11-20T18:31:32.514Z,4.83
2022-11-20T18:34:18.193Z,4.83
2022-11-20T18:37:03.555Z,4.97
2022-11-20T18:39:50.436Z,4.73
2022-11-20T18:42:56.589Z,5.23
2022-11-20T18:45:42.191Z,5.53
2022-11-20T18:48:28.000Z,5.10
2022-11-20T18:51:16.473Z,5.30
2022-11-20T18:54:03.504Z,4.73
2022-11-20T18:56:49.642Z,5.77
2022-11-20T18:59:35.255Z,5.20
2022-11-20T19:02:21.983Z,5.97
2022-11-20T19:05:08.221Z,5.30
2022-11-20T19:07:54.094Z,6.00
2022-11-20T19:10:40.446Z,5.27
2022-11-20T19:13:26.452Z,6.30
2022-11-20T19:16:18.062Z,6.30
2022-11-20T19:19:05.703Z,6.57
2022-11-20T19:21:52.125Z,6.83
2022-11-20T19:24:38.095Z,6.23
2022-11-20T19:27:24.223Z,7.37
2022-11-20T19:30:10.573Z,6.70
2022-11-20T19:32:58.275Z,6.90
2022-11-20T19:35:44.634Z,6.40
2022-11-20T19:38:29.971Z,7.20
2022-11-20T19:41:16.897Z,6.83
2022-11-20T19:44:09.818Z,7.10
2022-11-20T19:46:57.727Z,8.07
2022-11-20T19:49:43.628Z,7.50
2022-11-20T19:52:29.209Z,7.23
2022-11-20T19:55:14.978Z,7.77
2022-11-20T19:58:00.108Z,7.47
2022-11-20T20:00:45.762Z,7.80
2022-11-20T20:03:32.739Z,8.27
2022-11-20T20:06:26.296Z,8.10
2022-11-20T20:11:57.900Z,8.33
2022-11-20T20:14:43.453Z,9.03
2022-11-20T20:17:31.306Z,8.40
2022-11-20T20:20:17.187Z,9.10
2022-11-20T20:23:04.522Z,9.03
2022-11-20T20:25:49.684Z,9.40
2022-11-20T20:28:36.522Z,10.33
2022-11-20T20:31:24.739Z,9.63
2022-11-20T20:34:16.619Z,9.87
2022-11-20T20:37:05.210Z,9.30
2022-11-20T20:39:50.545Z,9.47
2022-11-20T20:42:36.274Z,8.53
2022-11-20T20:45:21.962Z,8.23
2022-11-20T20:48:07.443Z,8.60
2022-11-20T20:51:01.034Z,8.20
2022-11-20T20:53:46.323Z,8.13
2022-11-20T20:56:32.013Z,8.50
2022-11-20T20:59:17.262Z,7.97
2022-11-20T21:02:02.521Z,8.97
2022-11-20T21:04:48.070Z,9.37
2022-11-20T21:07:33.656Z,8.47
2022-11-20T21:10:23.628Z,8.23
2022-11-20T21:13:09.182Z,9.50
2022-11-20T21:15:54.684Z,9.43
2022-11-20T21:18:39.933Z,9.90
2022-11-20T21:21:51.273Z,9.23
2022-11-20T21:24:37.041Z,8.73
2022-11-20T21:27:22.524Z,8.57
2022-11-20T21:30:08.729Z,8.23
2022-11-20T21:32:55.345Z,8.83
2022-11-20T21:35:41.521Z,8.00
2022-11-20T21:38:27.099Z,7.83
2022-11-20T21:41:14.779Z,7.97
2022-11-20T21:47:09.116Z,7.37
2022-11-20T21:49:54.327Z,7.33
2022-11-20T21:52:39.868Z,7.50
2022-11-20T21:55:25.074Z,7.43
2022-11-20T21:58:10.382Z,7.70
2022-11-20T22:00:55.487Z,6.87
2022-11-20T22:03:41.731Z,7.23
2022-11-20T22:06:34.713Z,5.87
2022-11-20T22:09:20.301Z,6.47
2022-11-20T22:12:05.722Z,6.40
2022-11-20T22:14:51.095Z,5.73
2022-11-20T22:17:54.851Z,6.57
2022-11-20T22:20:41.099Z,5.87
2022-11-20T22:23:26.571Z,6.00
2022-11-20T22:26:14.470Z,6.50
2022-11-20T22:28:59.764Z,6.00
2022-11-20T22:31:45.382Z,5.83
2022-11-20T22:34:30.430Z,5.60
2022-11-20T22:37:16.136Z,5.83
2022-11-20T22:40:01.759Z,5.97
2022-11-20T22:42:47.296Z,5.60
2022-11-20T22:45:32.998Z,6.03
2022-11-20T22:48:18.422Z,5.67
2022-11-20T22:51:07.415Z,5.60
2022-11-20T22:53:53.200Z,5.50
2022-11-20T22:56:38.900Z,4.93
2022-11-20T22:59:24.362Z,5.80
2022-11-20T23:02:09.725Z,5.23
2022-11-20T23:04:54.930Z,5.30
2022-11-20T23:07:41.233Z,5.23
2022-11-20T23:10:27.234Z,5.60
2022-11-20T23:13:12.660Z,5.43
2022-11-20T23:16:12.627Z,5.00
2022-11-20T23:19:05.545Z,5.20
2022-11-20T23:21:51.205Z,5.32
2022-11-20T23:24:36.480Z,4.90
2022-11-20T23:27:25.947Z,5.13
2022-11-20T23:30:13.715Z,4.80
2022-11-20T23:32:59.065Z,5.10
2022-11-20T23:35:47.375Z,5.00
2022-11-20T23:38:33.450Z,4.70
2022-11-20T23:41:19.022Z,4.50
2022-11-20T23:44:04.345Z,4.63
2022-11-20T23:46:49.588Z,4.53
2022-11-20T23:49:34.934Z,5.40
2022-11-20T23:52:20.185Z,4.93
2022-11-20T23:55:05.893Z,5.17
2022-11-20T23:57:51.525Z,5.10
